createdAt,value
2023-06-17T00:00:16.088Z,14.64
2023-06-17T00:02:45.149Z,14.64
2023-06-17T00:05:12.966Z,14.60
2023-06-17T00:07:42.437Z,14.57
2023-06-17T00:10:11.744Z,14.57
2023-06-17T00:12:40.192Z,14.52
2023-06-17T00:15:09.012Z,14.52
2023-06-17T00:17:36.759Z,14.47
2023-06-17T00:20:11.299Z,14.42
2023-06-17T00:22:40.342Z,14.39
2023-06-17T00:25:09.076Z,14.37
2023-06-17T00:27:36.791Z,14.38
2023-06-17T00:30:04.838Z,14.37
2023-06-17T00:32:32.741Z,14.35
2023-06-17T00:35:00.494Z,14.36
2023-06-17T00:37:29.519Z,14.34
2023-06-17T00:39:57.241Z,14.33
2023-06-17T00:42:24.912Z,14.28
2023-06-17T00:44:52.822Z,14.25
2023-06-17T00:47:20.994Z,14.25
2023-06-17T00:49:49.492Z,14.22
2023-06-17T00:52:39.290Z,14.19
2023-06-17T00:55:09.854Z,14.18
2023-06-17T00:57:38.488Z,14.20
2023-06-17T01:00:17.037Z,14.22
2023-06-17T01:02:46.732Z,14.20
2023-06-17T01:05:17.688Z,14.20
2023-06-17T01:08:01.220Z,14.20
2023-06-17T01:10:36.992Z,14.20
2023-06-17T01:13:06.561Z,14.18
2023-06-17T01:15:35.633Z,14.15
2023-06-17T01:18:06.200Z,14.14
2023-06-17T01:20:35.059Z,14.12
2023-06-17T01:23:06.586Z,14.08
2023-06-17T01:25:36.566Z,14.03
2023-06-17T01:28:17.616Z,13.99
2023-06-17T01:30:46.341Z,13.93
2023-06-17T01:33:15.302Z,13.93
2023-06-17T01:35:51.218Z,13.94
2023-06-17T01:38:23.517Z,13.93
2023-06-17T01:40:58.652Z,13.93
2023-06-17T01:43:28.676Z,13.92
2023-06-17T01:45:57.619Z,13.91
2023-06-17T01:48:25.658Z,13.90
2023-06-17T01:50:53.482Z,13.85
2023-06-17T01:53:23.220Z,13.79
2023-06-17T01:55:52.952Z,13.77
2023-06-17T01:58:20.764Z,13.73
2023-06-17T02:00:48.541Z,13.71
2023-06-17T02:03:17.103Z,13.65
2023-06-17T02:05:45.892Z,13.61
2023-06-17T02:08:15.959Z,13.58
2023-06-17T02:10:43.811Z,13.54
2023-06-17T02:13:12.799Z,13.51
2023-06-17T02:15:43.599Z,13.49
2023-06-17T02:18:13.513Z,13.46
2023-06-17T02:20:41.249Z,13.45
2023-06-17T02:23:09.119Z,13.43
2023-06-17T02:25:37.902Z,13.45
2023-06-17T02:28:05.973Z,13.44
2023-06-17T02:30:35.024Z,13.44
2023-06-17T02:33:03.006Z,13.46
2023-06-17T02:35:30.711Z,13.45
2023-06-17T02:37:59.133Z,13.47
2023-06-17T02:40:26.815Z,13.46
2023-06-17T02:42:54.595Z,13.47
2023-06-17T02:45:23.149Z,13.46
2023-06-17T02:47:52.329Z,13.49
2023-06-17T02:50:22.856Z,13.50
2023-06-17T02:52:57.235Z,13.53
2023-06-17T02:55:26.729Z,13.57
2023-06-17T02:57:54.844Z,13.57
2023-06-17T03:00:23.264Z,13.61
2023-06-17T03:02:52.822Z,13.65
2023-06-17T03:05:20.690Z,13.67
2023-06-17T03:07:49.043Z,13.68
2023-06-17T03:10:19.257Z,13.69
2023-06-17T03:12:47.242Z,13.71
2023-06-17T03:15:18.547Z,13.76
2023-06-17T03:17:46.820Z,13.81
2023-06-17T03:20:16.217Z,13.88
2023-06-17T03:22:44.974Z,13.94
2023-06-17T03:25:14.548Z,14.04
2023-06-17T03:27:42.330Z,14.11
2023-06-17T03:30:10.786Z,14.24
2023-06-17T03:32:38.516Z,14.34
2023-06-17T03:35:07.358Z,14.50
2023-06-17T03:37:36.493Z,14.65
2023-06-17T03:40:04.995Z,14.79
2023-06-17T03:42:32.770Z,14.98
2023-06-17T03:45:00.560Z,15.15
2023-06-17T03:47:29.532Z,15.36
2023-06-17T03:49:57.333Z,15.59
2023-06-17T03:52:25.000Z,15.63
2023-06-17T03:54:55.066Z,15.60
2023-06-17T03:57:22.812Z,15.63
2023-06-17T03:59:50.487Z,15.65
2023-06-17T04:02:18.217Z,15.64
2023-06-17T04:04:45.930Z,15.69
2023-06-17T04:07:13.718Z,15.68
2023-06-17T04:09:48.225Z,15.72
2023-06-17T04:12:30.402Z,15.76
2023-06-17T04:14:58.028Z,15.76
2023-06-17T04:17:25.828Z,15.79
2023-06-17T04:19:56.097Z,15.83
2023-06-17T04:22:23.787Z,15.85
2023-06-17T04:24:57.092Z,15.92
2023-06-17T04:27:24.964Z,15.99
2023-06-17T04:29:57.322Z,16.04
2023-06-17T04:32:25.871Z,16.15
2023-06-17T04:34:53.625Z,16.21
2023-06-17T04:37:21.670Z,16.35
2023-06-17T04:39:49.753Z,16.40
2023-06-17T04:42:18.245Z,16.47
2023-06-17T04:44:50.124Z,16.47
2023-06-17T04:47:20.938Z,16.48
2023-06-17T04:49:49.054Z,16.52
2023-06-17T04:52:20.336Z,16.62
2023-06-17T04:54:48.793Z,16.73
2023-06-17T04:57:17.469Z,16.86
2023-06-17T04:59:45.176Z,17.03
2023-06-17T05:02:12.911Z,17.13
2023-06-17T05:04:42.075Z,17.25
2023-06-17T05:07:10.007Z,17.29
2023-06-17T05:09:37.731Z,17.44
2023-06-17T05:12:06.063Z,17.52
2023-06-17T05:14:33.677Z,17.66
2023-06-17T05:17:01.478Z,17.79
2023-06-17T05:19:29.131Z,17.93
2023-06-17T05:21:58.203Z,18.10
2023-06-17T05:24:26.003Z,18.12
2023-06-17T05:26:54.361Z,18.36
2023-06-17T05:29:22.225Z,18.52
2023-06-17T05:31:50.117Z,18.68
2023-06-17T05:34:17.896Z,18.71
2023-06-17T05:36:45.669Z,18.76
2023-06-17T05:39:14.931Z,18.93
2023-06-17T05:41:42.710Z,19.00
2023-06-17T05:44:10.788Z,19.20
2023-06-17T05:46:39.702Z,19.44
2023-06-17T05:49:07.649Z,19.58
2023-06-17T05:51:35.640Z,19.70
2023-06-17T05:54:03.365Z,20.01
2023-06-17T05:56:32.712Z,20.15
2023-06-17T05:59:00.386Z,20.36
2023-06-17T06:01:28.134Z,20.52
2023-06-17T06:03:55.906Z,20.68
2023-06-17T06:06:23.766Z,20.89
2023-06-17T06:08:51.402Z,20.84
2023-06-17T06:11:19.494Z,20.87
2023-06-17T06:13:48.675Z,20.88
2023-06-17T06:16:16.459Z,21.06
2023-06-17T06:18:44.188Z,21.29
2023-06-17T06:21:12.119Z,21.44
2023-06-17T06:23:39.797Z,21.60
2023-06-17T06:26:07.446Z,21.88
2023-06-17T06:28:35.086Z,22.08
2023-06-17T06:31:04.406Z,22.30
2023-06-17T06:33:32.384Z,22.53
2023-06-17T06:36:00.132Z,22.81
2023-06-17T06:38:28.239Z,23.02
2023-06-17T06:40:55.907Z,23.05
2023-06-17T06:43:24.448Z,22.94
2023-06-17T06:45:52.666Z,23.11
2023-06-17T06:48:22.077Z,23.13
2023-06-17T06:50:49.768Z,23.55
2023-06-17T06:53:17.596Z,23.90
2023-06-17T06:55:45.783Z,24.46
2023-06-17T06:58:13.524Z,25.13
2023-06-17T07:00:41.417Z,25.69
2023-06-17T07:03:09.140Z,26.13
2023-06-17T07:05:38.203Z,26.72
2023-06-17T07:08:06.056Z,27.41
2023-06-17T07:10:34.684Z,27.54
2023-06-17T07:13:02.476Z,28.42
2023-06-17T07:15:30.165Z,29.02
2023-06-17T07:17:57.891Z,29.42
2023-06-17T07:20:25.665Z,29.86
2023-06-17T07:22:55.056Z,30.49
2023-06-17T07:25:22.734Z,31.01
2023-06-17T07:27:51.985Z,31.18
2023-06-17T07:30:20.068Z,31.02
2023-06-17T07:32:48.368Z,31.08
2023-06-17T07:35:16.219Z,31.24
2023-06-17T07:37:43.895Z,31.29
2023-06-17T07:40:17.607Z,31.54
2023-06-17T07:42:47.479Z,31.52
2023-06-17T07:45:15.180Z,31.56
2023-06-17T07:47:43.169Z,31.60
2023-06-17T07:50:11.676Z,31.67
2023-06-17T07:52:39.596Z,31.82
2023-06-17T07:55:09.519Z,32.00
2023-06-17T07:57:38.538Z,31.62
2023-06-17T08:00:10.281Z,31.70
2023-06-17T08:02:38.230Z,31.50
2023-06-17T08:05:06.703Z,31.25
2023-06-17T08:07:34.917Z,30.98
2023-06-17T08:10:02.776Z,30.63
2023-06-17T08:12:30.552Z,30.47
2023-06-17T08:14:59.612Z,30.02
2023-06-17T08:17:27.398Z,29.85
2023-06-17T08:19:55.194Z,29.52
2023-06-17T08:22:23.142Z,29.03
2023-06-17T08:24:50.860Z,28.80
2023-06-17T08:27:18.842Z,27.98
2023-06-17T08:29:46.489Z,27.64
2023-06-17T08:32:15.659Z,27.62
2023-06-17T08:34:43.456Z,27.51
2023-06-17T08:37:11.273Z,27.88
2023-06-17T08:39:40.852Z,28.03
2023-06-17T08:42:10.287Z,27.96
2023-06-17T08:44:43.412Z,28.07
2023-06-17T08:47:15.589Z,28.17
2023-06-17T08:49:45.403Z,27.57
2023-06-17T08:52:14.940Z,27.54
2023-06-17T08:54:43.627Z,27.38
2023-06-17T08:57:13.682Z,27.31
2023-06-17T08:59:42.561Z,27.00
2023-06-17T09:02:11.704Z,26.56
2023-06-17T09:04:39.532Z,26.34
2023-06-17T09:07:10.481Z,26.09
2023-06-17T09:09:39.297Z,26.44
2023-06-17T09:12:09.415Z,26.46
2023-06-17T09:14:38.529Z,26.44
2023-06-17T09:17:06.247Z,26.46
2023-06-17T09:19:34.448Z,26.55
2023-06-17T09:22:08.296Z,26.47
2023-06-17T09:24:36.283Z,26.11
2023-06-17T09:27:04.322Z,25.78
2023-06-17T09:29:34.199Z,25.57
2023-06-17T09:32:05.010Z,25.97
2023-06-17T09:34:32.723Z,26.00
2023-06-17T09:37:02.382Z,26.27
2023-06-17T09:39:33.280Z,26.56
2023-06-17T09:42:09.837Z,26.55
2023-06-17T09:44:39.021Z,26.46
2023-06-17T09:47:09.001Z,26.44
2023-06-17T09:49:37.837Z,26.52
2023-06-17T09:52:09.468Z,27.01
2023-06-17T09:54:42.059Z,26.66
2023-06-17T09:57:14.725Z,26.70
2023-06-17T09:59:45.140Z,27.09
2023-06-17T10:02:12.960Z,27.29
2023-06-17T10:04:40.789Z,27.77
2023-06-17T10:07:09.206Z,27.87
2023-06-17T10:09:38.765Z,28.11
2023-06-17T10:12:08.892Z,28.24
2023-06-17T10:14:37.485Z,27.96
2023-06-17T10:17:10.666Z,27.49
2023-06-17T10:19:41.026Z,27.59
2023-06-17T10:22:14.250Z,27.77
2023-06-17T10:24:44.256Z,27.78
2023-06-17T10:27:12.191Z,27.86
2023-06-17T10:29:43.621Z,28.07
2023-06-17T10:32:19.940Z,27.98
2023-06-17T10:35:10.656Z,28.47
2023-06-17T10:37:42.967Z,28.99
2023-06-17T10:40:26.946Z,27.95
2023-06-17T10:42:56.895Z,28.06
2023-06-17T10:45:24.714Z,28.42
2023-06-17T10:47:52.515Z,28.46
2023-06-17T10:50:24.005Z,28.48
2023-06-17T10:52:56.858Z,28.36
2023-06-17T10:55:25.899Z,28.91
2023-06-17T10:57:53.552Z,28.50
2023-06-17T11:00:22.722Z,28.79
2023-06-17T11:02:50.961Z,29.12
2023-06-17T11:05:19.368Z,28.96
2023-06-17T11:07:47.005Z,28.72
2023-06-17T11:10:15.310Z,28.38
2023-06-17T11:12:48.817Z,28.52
2023-06-17T11:15:18.158Z,28.77
2023-06-17T11:17:45.912Z,28.54
2023-06-17T11:20:14.102Z,28.25
2023-06-17T11:22:42.099Z,27.51
2023-06-17T11:25:11.684Z,27.27
2023-06-17T11:27:41.934Z,27.34
2023-06-17T11:30:14.048Z,27.37
2023-06-17T11:32:42.861Z,27.73
2023-06-17T11:35:11.257Z,28.18
2023-06-17T11:37:39.432Z,28.22
2023-06-17T11:40:12.195Z,28.26
2023-06-17T11:42:40.366Z,28.58
2023-06-17T11:45:09.337Z,28.25
2023-06-17T11:47:38.553Z,28.37
2023-06-17T11:50:08.149Z,28.36
2023-06-17T11:52:36.892Z,28.47
2023-06-17T11:55:06.275Z,28.81
2023-06-17T11:57:34.716Z,29.21
2023-06-17T12:00:06.695Z,29.16
2023-06-17T12:02:36.279Z,29.14
2023-06-17T12:05:06.845Z,28.83
2023-06-17T12:07:39.663Z,28.53
2023-06-17T12:10:08.874Z,28.44
2023-06-17T12:12:38.902Z,28.56
2023-06-17T12:15:21.038Z,28.99
2023-06-17T12:17:52.564Z,28.96
2023-06-17T12:20:22.815Z,29.12
2023-06-17T12:22:53.088Z,29.26
2023-06-17T12:25:21.526Z,28.75
2023-06-17T12:27:51.473Z,28.28
2023-06-17T12:30:19.712Z,28.10
2023-06-17T12:32:47.790Z,28.29
2023-06-17T12:35:15.970Z,28.66
2023-06-17T12:37:45.374Z,28.73
2023-06-17T12:40:13.793Z,29.02
2023-06-17T12:42:42.066Z,29.03
2023-06-17T12:45:10.715Z,28.78
2023-06-17T12:47:38.870Z,28.56
2023-06-17T12:50:07.813Z,28.63
2023-06-17T12:52:35.895Z,29.05
2023-06-17T12:55:18.027Z,29.19
2023-06-17T12:57:45.874Z,29.57
2023-06-17T13:00:15.869Z,29.43
2023-06-17T13:02:43.854Z,29.30
2023-06-17T13:05:11.773Z,29.39
2023-06-17T13:07:39.437Z,29.65
2023-06-17T13:10:09.237Z,29.26
2023-06-17T13:12:37.145Z,28.76
2023-06-17T13:15:05.460Z,28.05
2023-06-17T13:17:33.774Z,27.12
2023-06-17T13:20:02.464Z,26.34
2023-06-17T13:22:32.228Z,25.59
2023-06-17T13:25:00.239Z,25.81
2023-06-17T13:27:30.166Z,25.42
2023-06-17T13:29:58.697Z,25.44
2023-06-17T13:32:26.969Z,25.07
2023-06-17T13:34:55.600Z,24.67
2023-06-17T13:37:23.397Z,24.36
2023-06-17T13:39:51.413Z,24.46
2023-06-17T13:42:19.061Z,24.40
2023-06-17T13:44:48.393Z,24.37
2023-06-17T13:47:16.236Z,24.67
2023-06-17T13:49:44.170Z,25.27
2023-06-17T13:52:13.024Z,26.00
2023-06-17T13:54:41.075Z,26.46
2023-06-17T13:57:09.047Z,26.40
2023-06-17T13:59:37.641Z,26.42
2023-06-17T14:02:07.992Z,25.99
2023-06-17T14:04:35.798Z,26.06
2023-06-17T14:07:03.634Z,26.10
2023-06-17T14:09:31.620Z,26.14
2023-06-17T14:11:59.291Z,26.24
2023-06-17T14:14:27.275Z,26.33
2023-06-17T14:16:57.592Z,26.73
2023-06-17T14:19:26.750Z,26.68
2023-06-17T14:21:56.484Z,26.99
2023-06-17T14:24:24.386Z,27.26
2023-06-17T14:27:20.902Z,27.16
2023-06-17T14:29:49.572Z,26.97
2023-06-17T14:32:18.379Z,27.04
2023-06-17T14:34:48.042Z,27.05
2023-06-17T14:37:15.789Z,27.34
2023-06-17T14:39:43.489Z,27.64
2023-06-17T14:42:12.848Z,27.53
2023-06-17T14:44:40.635Z,27.48
2023-06-17T14:47:08.732Z,27.50
2023-06-17T14:49:36.502Z,27.84
2023-06-17T14:52:05.951Z,28.30
2023-06-17T14:54:34.400Z,28.14
2023-06-17T14:57:02.444Z,28.20
2023-06-17T14:59:30.118Z,28.17
2023-06-17T15:01:57.789Z,28.33
2023-06-17T15:04:25.479Z,28.24
2023-06-17T15:06:53.443Z,28.35
2023-06-17T15:09:29.493Z,28.43
2023-06-17T15:11:58.532Z,28.49
2023-06-17T15:14:27.821Z,28.34
2023-06-17T15:16:55.916Z,28.41
2023-06-17T15:19:23.783Z,28.62
2023-06-17T15:21:52.093Z,28.56
2023-06-17T15:24:20.054Z,27.98
2023-06-17T15:26:49.239Z,27.80
2023-06-17T15:29:17.264Z,27.50
2023-06-17T15:31:45.317Z,26.87
2023-06-17T15:34:13.203Z,25.62
2023-06-17T15:36:41.607Z,24.93
2023-06-17T15:39:20.771Z,23.44
2023-06-17T15:41:52.505Z,22.72
2023-06-17T15:44:21.880Z,21.91
2023-06-17T15:46:50.586Z,21.53
2023-06-17T15:49:19.101Z,20.82
2023-06-17T15:51:46.742Z,20.32
2023-06-17T15:54:14.582Z,20.18
2023-06-17T15:56:46.901Z,20.34
2023-06-17T15:59:16.025Z,20.56
2023-06-17T16:01:43.756Z,20.60
2023-06-17T16:04:36.633Z,20.98
2023-06-17T16:07:06.759Z,21.25
2023-06-17T16:09:36.084Z,21.49
2023-06-17T16:12:04.246Z,21.77
2023-06-17T16:14:36.293Z,22.27
2023-06-17T16:17:06.698Z,22.55
2023-06-17T16:19:36.626Z,22.63
2023-06-17T16:22:05.727Z,22.85
2023-06-17T16:24:33.926Z,23.06
2023-06-17T16:27:01.802Z,23.09
2023-06-17T16:29:29.593Z,22.90
2023-06-17T16:31:58.993Z,22.84
2023-06-17T16:34:26.674Z,22.81
2023-06-17T16:36:54.453Z,22.84
2023-06-17T16:39:22.261Z,22.82
2023-06-17T16:41:50.253Z,22.78
2023-06-17T16:44:18.186Z,22.84
2023-06-17T16:46:47.677Z,22.77
2023-06-17T16:49:17.015Z,22.69
2023-06-17T16:51:44.933Z,22.46
2023-06-17T16:54:13.301Z,22.26
2023-06-17T16:56:41.079Z,21.93
2023-06-17T16:59:08.859Z,21.75
2023-06-17T17:01:36.689Z,21.77
2023-06-17T17:04:11.405Z,21.75
2023-06-17T17:06:41.068Z,21.81
2023-06-17T17:09:09.006Z,21.74
2023-06-17T17:11:36.899Z,21.43
2023-06-17T17:14:05.457Z,21.24
2023-06-17T17:16:33.196Z,20.64
2023-06-17T17:19:00.998Z,20.54
2023-06-17T17:21:28.971Z,20.62
2023-06-17T17:23:58.138Z,20.79
2023-06-17T17:26:26.217Z,21.09
2023-06-17T17:28:54.218Z,21.57
2023-06-17T17:31:21.918Z,21.97
2023-06-17T17:33:51.789Z,22.20
2023-06-17T17:36:20.333Z,22.44
2023-06-17T17:38:48.636Z,22.68
2023-06-17T17:41:17.854Z,22.75
2023-06-17T17:43:45.524Z,22.45
2023-06-17T17:46:13.332Z,22.25
2023-06-17T17:48:41.773Z,22.36
2023-06-17T17:51:09.424Z,22.41
2023-06-17T17:53:37.299Z,22.61
2023-06-17T17:56:05.645Z,22.77
2023-06-17T17:58:34.653Z,22.72
2023-06-17T18:01:04.441Z,22.79
2023-06-17T18:03:32.582Z,22.76
2023-06-17T18:06:02.523Z,22.73
2023-06-17T18:08:30.516Z,22.75
2023-06-17T18:10:58.145Z,22.75
2023-06-17T18:13:27.761Z,22.77
2023-06-17T18:15:57.828Z,22.57
2023-06-17T18:18:25.612Z,22.54
2023-06-17T18:20:53.284Z,22.57
2023-06-17T18:23:21.318Z,22.65
2023-06-17T18:25:49.292Z,22.68
2023-06-17T18:28:17.384Z,22.67
2023-06-17T18:30:45.064Z,22.63
2023-06-17T18:33:14.101Z,22.59
2023-06-17T18:35:41.773Z,22.67
2023-06-17T18:38:09.727Z,22.80
2023-06-17T18:40:37.686Z,22.99
2023-06-17T18:43:05.401Z,23.21
2023-06-17T18:45:33.505Z,23.36
2023-06-17T18:48:03.614Z,23.47
2023-06-17T18:50:32.788Z,23.56
2023-06-17T18:53:00.494Z,23.67
2023-06-17T18:55:30.399Z,23.73
2023-06-17T18:57:58.999Z,23.71
2023-06-17T19:00:27.032Z,23.71
2023-06-17T19:02:54.841Z,23.63
2023-06-17T19:05:22.547Z,23.44
2023-06-17T19:07:51.562Z,23.43
2023-06-17T19:10:19.612Z,23.32
2023-06-17T19:12:47.812Z,23.26
2023-06-17T19:15:15.565Z,23.22
2023-06-17T19:17:43.354Z,23.06
2023-06-17T19:20:12.323Z,23.00
2023-06-17T19:22:40.668Z,22.80
2023-06-17T19:25:10.718Z,22.54
2023-06-17T19:27:38.421Z,22.33
2023-06-17T19:30:07.363Z,22.08
2023-06-17T19:32:35.130Z,21.80
2023-06-17T19:35:04.471Z,21.56
2023-06-17T19:37:32.253Z,21.27
2023-06-17T19:40:00.444Z,21.01
2023-06-17T19:42:29.498Z,20.77
2023-06-17T19:44:59.869Z,20.53
2023-06-17T19:47:28.483Z,20.31
2023-06-17T19:49:57.841Z,20.12
2023-06-17T19:52:25.916Z,19.98
2023-06-17T19:54:55.104Z,19.83
2023-06-17T19:57:22.873Z,19.69
2023-06-17T19:59:52.210Z,19.58
2023-06-17T20:02:20.446Z,19.46
2023-06-17T20:04:48.338Z,19.34
2023-06-17T20:07:16.087Z,19.23
2023-06-17T20:09:43.878Z,19.13
2023-06-17T20:12:12.517Z,19.03
2023-06-17T20:14:40.146Z,18.97
2023-06-17T20:17:10.866Z,18.89
2023-06-17T20:19:38.554Z,18.77
2023-06-17T20:22:06.600Z,18.68
2023-06-17T20:24:34.597Z,18.62
2023-06-17T20:27:02.508Z,18.54
2023-06-17T20:29:30.225Z,18.46
2023-06-17T20:31:57.895Z,18.40
2023-06-17T20:34:26.905Z,18.33
2023-06-17T20:36:54.852Z,18.31
2023-06-17T20:39:22.500Z,18.23
2023-06-17T20:41:50.176Z,18.16
2023-06-17T20:44:18.048Z,18.13
2023-06-17T20:46:46.153Z,18.08
2023-06-17T20:49:13.934Z,18.03
2023-06-17T20:51:42.996Z,18.00
2023-06-17T20:54:10.667Z,17.97
2023-06-17T20:56:38.342Z,17.96
2023-06-17T20:59:06.123Z,17.93
2023-06-17T21:01:33.808Z,17.92
2023-06-17T21:04:01.512Z,17.93
2023-06-17T21:06:29.407Z,17.90
2023-06-17T21:08:58.435Z,17.86
2023-06-17T21:11:26.630Z,17.84
2023-06-17T21:13:54.422Z,17.81
2023-06-17T21:16:22.407Z,17.77
2023-06-17T21:18:50.668Z,17.72
2023-06-17T21:21:18.345Z,17.69
2023-06-17T21:23:46.888Z,17.65
2023-06-17T21:26:16.066Z,17.62
2023-06-17T21:28:43.738Z,17.56
2023-06-17T21:31:11.473Z,17.54
2023-06-17T21:33:39.147Z,17.49
2023-06-17T21:36:06.976Z,17.45
2023-06-17T21:38:34.677Z,17.46
2023-06-17T21:41:03.315Z,17.43
2023-06-17T21:43:33.425Z,17.41
2023-06-17T21:46:01.701Z,17.37
2023-06-17T21:48:29.445Z,17.33
2023-06-17T21:50:57.474Z,17.32
2023-06-17T21:53:25.781Z,17.28
2023-06-17T21:55:53.654Z,17.24
2023-06-17T21:58:21.322Z,17.22
2023-06-17T22:00:51.654Z,17.19
2023-06-17T22:03:23.380Z,17.15
2023-06-17T22:05:51.720Z,17.09
2023-06-17T22:08:24.554Z,17.06
2023-06-17T22:10:55.708Z,17.05
2023-06-17T22:13:23.345Z,17.02
2023-06-17T22:15:52.400Z,17.00
2023-06-17T22:18:20.057Z,16.98
2023-06-17T22:20:50.325Z,16.94
2023-06-17T22:23:18.453Z,16.91
2023-06-17T22:25:46.735Z,16.87
2023-06-17T22:28:14.490Z,16.84
2023-06-17T22:30:42.335Z,16.81
2023-06-17T22:33:11.494Z,16.80
2023-06-17T22:35:39.215Z,16.79
2023-06-17T22:38:06.919Z,16.77
2023-06-17T22:40:34.689Z,16.76
2023-06-17T22:43:02.325Z,16.75
2023-06-17T22:45:29.986Z,16.73
2023-06-17T22:47:57.772Z,16.71
2023-06-17T22:50:27.185Z,16.71
2023-06-17T22:52:54.988Z,16.70
2023-06-17T22:55:24.217Z,16.71
2023-06-17T22:57:52.132Z,16.73
2023-06-17T23:00:20.295Z,16.75
2023-06-17T23:02:48.368Z,16.76
2023-06-17T23:05:16.483Z,16.76
2023-06-17T23:07:45.526Z,16.76
2023-06-17T23:10:13.240Z,16.78
2023-06-17T23:12:40.926Z,16.79
2023-06-17T23:15:09.198Z,16.78
2023-06-17T23:17:36.999Z,16.75
2023-06-17T23:20:05.129Z,16.73
2023-06-17T23:22:34.700Z,16.68
2023-06-17T23:25:07.535Z,16.66
2023-06-17T23:27:36.088Z,16.67
2023-06-17T23:30:03.994Z,16.66
2023-06-17T23:32:31.860Z,16.69
2023-06-17T23:35:00.515Z,16.64
2023-06-17T23:37:28.861Z,16.65
2023-06-17T23:39:56.652Z,16.63
2023-06-17T23:42:25.667Z,16.62
2023-06-17T23:44:53.419Z,16.60
2023-06-17T23:47:21.456Z,16.54
2023-06-17T23:49:49.850Z,16.49
2023-06-17T23:52:17.738Z,16.43
2023-06-17T23:54:45.497Z,16.36
2023-06-17T23:57:13.167Z,16.31
2023-06-17T23:59:42.247Z,16.26
